sensor_id;sensor_type;location;lat;lon;timestamp;pressure;altitude;pressure_sealevel;temperature;humidity
75767;BME280;64378;55.596;13.014;2023-04-03T00:00:40;103372.28;;;20.73;29.81
75767;BME280;64378;55.596;13.014;2023-04-03T00:03:06;103374.59;;;20.76;29.83
75767;BME280;64378;55.596;13.014;2023-04-03T00:05:32;103376.53;;;20.76;29.65
75767;BME280;64378;55.596;13.014;2023-04-03T00:07:57;103383.88;;;20.75;29.69
75767;BME280;64378;55.596;13.014;2023-04-03T00:10:23;103384.75;;;20.76;29.76
75767;BME280;64378;55.596;13.014;2023-04-03T00:12:48;103379.25;;;20.76;29.50
75767;BME280;64378;55.596;13.014;2023-04-03T00:15:14;103381.16;;;20.75;29.58
75767;BME280;64378;55.596;13.014;2023-04-03T00:17:39;103379.44;;;20.74;29.59
75767;BME280;64378;55.596;13.014;2023-04-03T00:20:05;103379.66;;;20.73;29.70
75767;BME280;64378;55.596;13.014;2023-04-03T00:22:30;103390.25;;;20.76;29.62
75767;BME280;64378;55.596;13.014;2023-04-03T00:24:56;103387.50;;;20.76;29.57
75767;BME280;64378;55.596;13.014;2023-04-03T00:27:21;103389.38;;;20.75;29.95
75767;BME280;64378;55.596;13.014;2023-04-03T00:29:47;103391.28;;;20.75;29.82
75767;BME280;64378;55.596;13.014;2023-04-03T00:32:13;103389.38;;;20.75;29.71
75767;BME280;64378;55.596;13.014;2023-04-03T00:34:38;103397.59;;;20.75;29.77
75767;BME280;64378;55.596;13.014;2023-04-03T00:37:03;103397.84;;;20.74;29.78
75767;BME280;64378;55.596;13.014;2023-04-03T00:39:29;103392.53;;;20.73;29.72
75767;BME280;64378;55.596;13.014;2023-04-03T00:41:55;103400.56;;;20.74;29.58
75767;BME280;64378;55.596;13.014;2023-04-03T00:46:59;103392.53;;;20.73;29.54
75767;BME280;64378;55.596;13.014;2023-04-03T00:49:25;103402.69;;;20.72;29.59
75767;BME280;64378;55.596;13.014;2023-04-03T00:51:50;103395.50;;;20.71;29.56
75767;BME280;64378;55.596;13.014;2023-04-03T00:54:17;103404.56;;;20.72;29.97
75767;BME280;64378;55.596;13.014;2023-04-03T00:56:42;103403.50;;;20.73;29.61
75767;BME280;64378;55.596;13.014;2023-04-03T00:59:12;103402.69;;;20.72;29.85
75767;BME280;64378;55.596;13.014;2023-04-03T01:01:41;103399.06;;;20.72;29.73
75767;BME280;64378;55.596;13.014;2023-04-03T01:04:35;103401.81;;;20.72;29.76
75767;BME280;64378;55.596;13.014;2023-04-03T01:07:22;103407.31;;;20.72;29.73
75767;BME280;64378;55.596;13.014;2023-04-03T01:09:51;103400.97;;;20.71;29.77
75767;BME280;64378;55.596;13.014;2023-04-03T01:12:23;103399.28;;;20.70;29.87
75767;BME280;64378;55.596;13.014;2023-04-03T01:14:55;103400.97;;;20.71;29.35
75767;BME280;64378;55.596;13.014;2023-04-03T01:25:48;103406.66;;;20.70;29.91
75767;BME280;64378;55.596;13.014;2023-04-03T01:31:12;103408.56;;;20.69;29.76
75767;BME280;64378;55.596;13.014;2023-04-03T01:33:40;103402.88;;;20.71;29.82
75767;BME280;64378;55.596;13.014;2023-04-03T01:36:07;103405.81;;;20.69;29.65
75767;BME280;64378;55.596;13.014;2023-04-03T01:38:33;103399.47;;;20.69;29.83
75767;BME280;64378;55.596;13.014;2023-04-03T01:40:59;103396.94;;;20.67;30.05
75767;BME280;64378;55.596;13.014;2023-04-03T01:43:25;103396.94;;;20.67;29.70
75767;BME280;64378;55.596;13.014;2023-04-03T01:45:50;103400.53;;;20.68;29.84
75767;BME280;64378;55.596;13.014;2023-04-03T01:48:17;103402.63;;;20.66;29.86
75767;BME280;64378;55.596;13.014;2023-04-03T01:50:42;103403.50;;;20.66;29.96
75767;BME280;64378;55.596;13.014;2023-04-03T01:53:08;103408.13;;;20.66;29.88
75767;BME280;64378;55.596;13.014;2023-04-03T01:55:33;103406.22;;;20.66;29.72
75767;BME280;64378;55.596;13.014;2023-04-03T01:57:59;103409.81;;;20.67;29.81
75767;BME280;64378;55.596;13.014;2023-04-03T02:00:24;103414.47;;;20.66;29.83
75767;BME280;64378;55.596;13.014;2023-04-03T02:02:49;103408.97;;;20.66;29.65
75767;BME280;64378;55.596;13.014;2023-04-03T02:05:15;103416.34;;;20.66;29.88
75767;BME280;64378;55.596;13.014;2023-04-03T02:07:40;103412.78;;;20.65;29.85
75767;BME280;64378;55.596;13.014;2023-04-03T02:10:06;103409.16;;;20.65;29.70
75767;BME280;64378;55.596;13.014;2023-04-03T02:12:31;103410.03;;;20.65;29.65
75767;BME280;64378;55.596;13.014;2023-04-03T02:14:57;103416.34;;;20.66;29.75
75767;BME280;64378;55.596;13.014;2023-04-03T02:17:22;103404.53;;;20.65;29.62
75767;BME280;64378;55.596;13.014;2023-04-03T02:19:47;103414.03;;;20.63;29.58
75767;BME280;64378;55.596;13.014;2023-04-03T02:22:13;103417.38;;;20.65;29.59
75767;BME280;64378;55.596;13.014;2023-04-03T02:24:38;103420.13;;;20.65;29.72
75767;BME280;64378;55.596;13.014;2023-04-03T02:27:05;103425.84;;;20.63;29.60
75767;BME280;64378;55.596;13.014;2023-04-03T02:29:30;103419.31;;;20.64;29.70
75767;BME280;64378;55.596;13.014;2023-04-03T02:31:56;103418.25;;;20.65;29.61
75767;BME280;64378;55.596;13.014;2023-04-03T02:34:21;103420.13;;;20.65;29.57
75767;BME280;64378;55.596;13.014;2023-04-03T02:36:47;103423.09;;;20.63;29.54
75767;BME280;64378;55.596;13.014;2023-04-03T02:39:13;103425.00;;;20.63;29.66
75767;BME280;64378;55.596;13.014;2023-04-03T02:41:39;103429.44;;;20.64;29.78
75767;BME280;64378;55.596;13.014;2023-04-03T02:44:06;103425.00;;;20.63;29.35
75767;BME280;64378;55.596;13.014;2023-04-03T02:46:32;103425.00;;;20.63;29.57
75767;BME280;64378;55.596;13.014;2023-04-03T02:48:58;103426.88;;;20.62;29.52
75767;BME280;64378;55.596;13.014;2023-04-03T02:51:23;103427.09;;;20.61;29.58
75767;BME280;64378;55.596;13.014;2023-04-03T02:53:49;103427.94;;;20.61;29.54
75767;BME280;64378;55.596;13.014;2023-04-03T02:56:16;103425.41;;;20.60;29.62
75767;BME280;64378;55.596;13.014;2023-04-03T02:58:42;103434.47;;;20.60;29.65
75767;BME280;64378;55.596;13.014;2023-04-03T03:01:07;103432.59;;;20.61;29.64
75767;BME280;64378;55.596;13.014;2023-04-03T03:03:33;103431.72;;;20.60;29.62
75767;BME280;64378;55.596;13.014;2023-04-03T03:06:13;103433.66;;;20.60;29.61
75767;BME280;64378;55.596;13.014;2023-04-03T03:08:40;103437.22;;;20.60;29.74
75767;BME280;64378;55.596;13.014;2023-04-03T03:11:05;103430.03;;;20.59;29.53
75767;BME280;64378;55.596;13.014;2023-04-03T03:13:31;103428.16;;;20.60;29.65
75767;BME280;64378;55.596;13.014;2023-04-03T03:15:57;103431.72;;;20.60;29.55
75767;BME280;64378;55.596;13.014;2023-04-03T03:18:22;103436.38;;;20.60;29.70
75767;BME280;64378;55.596;13.014;2023-04-03T03:20:52;103441.88;;;20.60;29.49
75767;BME280;64378;55.596;13.014;2023-04-03T03:23:18;103431.94;;;20.59;29.46
75767;BME280;64378;55.596;13.014;2023-04-03T03:25:44;103431.09;;;20.58;29.56
75767;BME280;64378;55.596;13.014;2023-04-03T03:28:09;103433.66;;;20.60;29.65
75767;BME280;64378;55.596;13.014;2023-04-03T03:30:35;103435.75;;;20.58;29.39
75767;BME280;64378;55.596;13.014;2023-04-03T03:33:00;103430.25;;;20.58;29.24
75767;BME280;64378;55.596;13.014;2023-04-03T03:35:26;103433.00;;;20.58;29.63
75767;BME280;64378;55.596;13.014;2023-04-03T03:37:51;103434.88;;;20.57;29.45
75767;BME280;64378;55.596;13.014;2023-04-03T03:40:17;103444.16;;;20.56;29.48
75767;BME280;64378;55.596;13.014;2023-04-03T03:42:42;103435.94;;;20.56;29.40
75767;BME280;64378;55.596;13.014;2023-04-03T03:45:08;103435.94;;;20.56;29.48
75767;BME280;64378;55.596;13.014;2023-04-03T03:47:34;103439.72;;;20.55;29.40
75767;BME280;64378;55.596;13.014;2023-04-03T03:50:00;103432.34;;;20.56;29.49
75767;BME280;64378;55.596;13.014;2023-04-03T03:52:26;103435.28;;;20.54;29.60
75767;BME280;64378;55.596;13.014;2023-04-03T03:54:51;103436.13;;;20.55;29.65
75767;BME280;64378;55.596;13.014;2023-04-03T03:57:17;103449.00;;;20.54;29.58
75767;BME280;64378;55.596;13.014;2023-04-03T03:59:42;103442.69;;;20.54;29.39
75767;BME280;64378;55.596;13.014;2023-04-03T04:02:09;103442.69;;;20.54;29.70
75767;BME280;64378;55.596;13.014;2023-04-03T04:04:35;103436.31;;;20.53;29.47
75767;BME280;64378;55.596;13.014;2023-04-03T04:07:01;103450.91;;;20.54;29.33
75767;BME280;64378;55.596;13.014;2023-04-03T04:09:26;103444.56;;;20.53;29.42
75767;BME280;64378;55.596;13.014;2023-04-03T04:11:52;103441.19;;;20.51;29.69
75767;BME280;64378;55.596;13.014;2023-04-03T04:14:18;103450.25;;;20.52;29.45
75767;BME280;64378;55.596;13.014;2023-04-03T04:16:45;103453.84;;;20.52;29.58
75767;BME280;64378;55.596;13.014;2023-04-03T04:19:11;103453.84;;;20.52;29.74
75767;BME280;64378;55.596;13.014;2023-04-03T04:21:37;103454.69;;;20.53;29.80
75767;BME280;64378;55.596;13.014;2023-04-03T04:24:02;103455.75;;;20.52;29.70
75767;BME280;64378;55.596;13.014;2023-04-03T04:26:27;103454.69;;;20.53;29.63
75767;BME280;64378;55.596;13.014;2023-04-03T04:28:53;103455.75;;;20.52;29.77
75767;BME280;64378;55.596;13.014;2023-04-03T04:31:18;103466.72;;;20.52;29.61
75767;BME280;64378;55.596;13.014;2023-04-03T04:33:44;103457.00;;;20.49;29.56
75767;BME280;64378;55.596;13.014;2023-04-03T04:36:09;103468.63;;;20.51;29.37
75767;BME280;64378;55.596;13.014;2023-04-03T04:38:35;103470.50;;;20.51;29.42
75767;BME280;64378;55.596;13.014;2023-04-03T04:41:00;103466.06;;;20.50;29.54
75767;BME280;64378;55.596;13.014;2023-04-03T04:43:26;103463.31;;;20.50;29.58
75767;BME280;64378;55.596;13.014;2023-04-03T04:46:06;103465.25;;;20.49;29.59
75767;BME280;64378;55.596;13.014;2023-04-03T04:48:33;103476.22;;;20.49;29.80
75767;BME280;64378;55.596;13.014;2023-04-03T04:50:58;103478.75;;;20.51;29.64
75767;BME280;64378;55.596;13.014;2023-04-03T04:53:23;103473.47;;;20.49;29.85
75767;BME280;64378;55.596;13.014;2023-04-03T04:55:49;103484.44;;;20.49;29.71
75767;BME280;64378;55.596;13.014;2023-04-03T04:58:15;103488.00;;;20.50;29.64
75767;BME280;64378;55.596;13.014;2023-04-03T05:00:41;103482.53;;;20.50;29.62
75767;BME280;64378;55.596;13.014;2023-04-03T05:03:06;103486.13;;;20.50;29.79
75767;BME280;64378;55.596;13.014;2023-04-03T05:05:31;103476.22;;;20.49;29.56
75767;BME280;64378;55.596;13.014;2023-04-03T05:07:57;103482.53;;;20.50;29.91
75767;BME280;64378;55.596;13.014;2023-04-03T05:10:22;103487.19;;;20.49;29.73
75767;BME280;64378;55.596;13.014;2023-04-03T05:12:48;103489.72;;;20.51;29.84
75767;BME280;64378;55.596;13.014;2023-04-03T05:15:13;103493.72;;;20.48;29.67
75767;BME280;64378;55.596;13.014;2023-04-03T05:17:39;103497.09;;;20.50;29.95
75767;BME280;64378;55.596;13.014;2023-04-03T05:20:05;103499.84;;;20.50;29.72
75767;BME280;64378;55.596;13.014;2023-04-03T05:22:31;103496.25;;;20.50;29.89
75767;BME280;64378;55.596;13.014;2023-04-03T05:24:56;103501.72;;;20.50;29.75
75767;BME280;64378;55.596;13.014;2023-04-03T05:27:22;103500.69;;;20.51;29.66
75767;BME280;64378;55.596;13.014;2023-04-03T05:29:53;103503.44;;;20.51;29.80
75767;BME280;64378;55.596;13.014;2023-04-03T05:32:19;103498.81;;;20.51;29.41
75767;BME280;64378;55.596;13.014;2023-04-03T05:34:45;103503.03;;;20.54;29.86
75767;BME280;64378;55.596;13.014;2023-04-03T05:37:11;103499.47;;;20.60;29.70
75767;BME280;64378;55.596;13.014;2023-04-03T05:39:36;103500.13;;;20.62;29.69
75767;BME280;64378;55.596;13.014;2023-04-03T05:42:03;103499.50;;;20.66;29.46
75767;BME280;64378;55.596;13.014;2023-04-03T05:44:29;103504.59;;;20.69;29.40
75767;BME280;64378;55.596;13.014;2023-04-03T05:46:54;103501.25;;;20.73;29.56
75767;BME280;64378;55.596;13.014;2023-04-03T05:49:20;103507.16;;;20.77;29.06
75767;BME280;64378;55.596;13.014;2023-04-03T05:51:45;103497.50;;;20.81;29.22
75767;BME280;64378;55.596;13.014;2023-04-03T05:54:18;103510.63;;;20.85;29.10
75767;BME280;64378;55.596;13.014;2023-04-03T05:56:44;103506.63;;;20.88;28.92
75767;BME280;64378;55.596;13.014;2023-04-03T05:59:10;103506.44;;;20.89;28.63
75767;BME280;64378;55.596;13.014;2023-04-03T06:01:36;103504.94;;;20.93;28.49
75767;BME280;64378;55.596;13.014;2023-04-03T06:04:02;103501.81;;;20.96;27.90
75767;BME280;64378;55.596;13.014;2023-04-03T06:06:43;103516.63;;;21.02;27.88
75767;BME280;64378;55.596;13.014;2023-04-03T06:09:10;103504.56;;;21.03;27.69
75767;BME280;64378;55.596;13.014;2023-04-03T06:11:35;103514.97;;;21.07;27.55
75767;BME280;64378;55.596;13.014;2023-04-03T06:14:01;103510.94;;;21.10;27.58
75767;BME280;64378;55.596;13.014;2023-04-03T06:16:26;103514.34;;;21.12;27.61
75767;BME280;64378;55.596;13.014;2023-04-03T06:18:52;103511.41;;;21.13;27.46
75767;BME280;64378;55.596;13.014;2023-04-03T06:21:17;103504.00;;;21.14;27.77
75767;BME280;64378;55.596;13.014;2023-04-03T06:23:42;103502.94;;;21.15;27.36
75767;BME280;64378;55.596;13.014;2023-04-03T06:26:08;103513.69;;;21.16;27.75
75767;BME280;64378;55.596;13.014;2023-04-03T06:28:33;103508.22;;;21.16;27.43
75767;BME280;64378;55.596;13.014;2023-04-03T06:30:59;103506.53;;;21.15;27.53
75767;BME280;64378;55.596;13.014;2023-04-03T06:33:24;103512.25;;;21.20;27.45
75767;BME280;64378;55.596;13.014;2023-04-03T06:35:55;103514.59;;;21.23;27.78
75767;BME280;64378;55.596;13.014;2023-04-03T06:38:21;103515.03;;;21.27;27.84
75767;BME280;64378;55.596;13.014;2023-04-03T06:40:47;103515.66;;;21.29;27.90
75767;BME280;64378;55.596;13.014;2023-04-03T06:43:12;103520.97;;;21.30;27.56
75767;BME280;64378;55.596;13.014;2023-04-03T06:45:38;103525.19;;;21.33;27.55
75767;BME280;64378;55.596;13.014;2023-04-03T06:48:03;103525.00;;;21.34;27.68
75767;BME280;64378;55.596;13.014;2023-04-03T06:50:29;103525.00;;;21.34;27.50
75767;BME280;64378;55.596;13.014;2023-04-03T06:52:54;103526.47;;;21.37;27.46
75767;BME280;64378;55.596;13.014;2023-04-03T06:55:19;103529.03;;;21.38;27.34
75767;BME280;64378;55.596;13.014;2023-04-03T06:57:45;103525.22;;;21.39;27.59
75767;BME280;64378;55.596;13.014;2023-04-03T07:00:11;103532.19;;;21.42;28.00
75767;BME280;64378;55.596;13.014;2023-04-03T07:02:37;103529.22;;;21.43;27.69
75767;BME280;64378;55.596;13.014;2023-04-03T07:05:03;103527.97;;;21.46;27.55
75767;BME280;64378;55.596;13.014;2023-04-03T07:07:28;103526.06;;;21.46;27.54
75767;BME280;64378;55.596;13.014;2023-04-03T07:09:53;103530.50;;;21.47;27.38
75767;BME280;64378;55.596;13.014;2023-04-03T07:12:19;103532.00;;;21.50;27.38
75767;BME280;64378;55.596;13.014;2023-04-03T07:14:45;103520.38;;;21.48;27.50
75767;BME280;64378;55.596;13.014;2023-04-03T07:17:10;103530.50;;;21.54;27.45
75767;BME280;64378;55.596;13.014;2023-04-03T07:19:36;103526.72;;;21.55;27.52
75767;BME280;64378;55.596;13.014;2023-04-03T07:22:01;103530.97;;;21.57;27.36
75767;BME280;64378;55.596;13.014;2023-04-03T07:24:27;103530.59;;;21.60;27.57
75767;BME280;64378;55.596;13.014;2023-04-03T07:26:52;103538.59;;;21.62;27.40
75767;BME280;64378;55.596;13.014;2023-04-03T07:29:18;103529.75;;;21.66;27.48
75767;BME280;64378;55.596;13.014;2023-04-03T07:31:45;103528.50;;;21.69;27.52
75767;BME280;64378;55.596;13.014;2023-04-03T07:34:11;103528.25;;;21.70;27.43
75767;BME280;64378;55.596;13.014;2023-04-03T07:36:36;103520.66;;;21.72;27.60
75767;BME280;64378;55.596;13.014;2023-04-03T07:39:02;103518.56;;;21.74;27.73
75767;BME280;64378;55.596;13.014;2023-04-03T07:41:28;103520.25;;;21.75;27.48
75767;BME280;64378;55.596;13.014;2023-04-03T07:43:54;103520.88;;;21.77;27.38
75767;BME280;64378;55.596;13.014;2023-04-03T07:46:20;103518.78;;;21.79;27.54
75767;BME280;64378;55.596;13.014;2023-04-03T07:48:45;103523.22;;;21.80;27.24
75767;BME280;64378;55.596;13.014;2023-04-03T07:51:11;103524.03;;;21.81;27.41
75767;BME280;64378;55.596;13.014;2023-04-03T07:53:36;103523.63;;;21.84;27.32
75767;BME280;64378;55.596;13.014;2023-04-03T07:56:02;103525.13;;;21.86;27.25
75767;BME280;64378;55.596;13.014;2023-04-03T07:58:28;103523.44;;;21.85;27.32
75767;BME280;64378;55.596;13.014;2023-04-03T08:00:54;103527.66;;;21.88;27.19
75767;BME280;64378;55.596;13.014;2023-04-03T08:03:19;103520.28;;;21.88;27.39
75767;BME280;64378;55.596;13.014;2023-04-03T08:05:46;103523.66;;;21.90;27.04
75767;BME280;64378;55.596;13.014;2023-04-03T08:08:14;103525.34;;;21.91;27.19
75767;BME280;64378;55.596;13.014;2023-04-03T08:10:41;103516.88;;;21.92;27.05
75767;BME280;64378;55.596;13.014;2023-04-03T08:13:07;103516.66;;;21.94;26.84
75767;BME280;64378;55.596;13.014;2023-04-03T08:15:33;103514.53;;;21.96;26.63
75767;BME280;64378;55.596;13.014;2023-04-03T08:17:59;103520.69;;;21.98;26.89
75767;BME280;64378;55.596;13.014;2023-04-03T08:20:26;103525.13;;;21.99;26.56
75767;BME280;64378;55.596;13.014;2023-04-03T08:22:52;103518.56;;;22.00;26.50
75767;BME280;64378;55.596;13.014;2023-04-03T08:25:18;103516.69;;;22.00;26.28
75767;BME280;64378;55.596;13.014;2023-04-03T08:27:44;103518.38;;;22.01;26.10
75767;BME280;64378;55.596;13.014;2023-04-03T08:30:09;103523.66;;;22.03;25.99
75767;BME280;64378;55.596;13.014;2023-04-03T08:32:35;103517.31;;;22.02;26.28
75767;BME280;64378;55.596;13.014;2023-04-03T08:35:02;103514.34;;;22.04;26.57
75767;BME280;64378;55.596;13.014;2023-04-03T08:37:27;103516.88;;;22.05;26.53
75767;BME280;64378;55.596;13.014;2023-04-03T08:39:53;103513.94;;;22.07;26.78
75767;BME280;64378;55.596;13.014;2023-04-03T08:45:12;103509.91;;;22.09;26.64
75767;BME280;64378;55.596;13.014;2023-04-03T08:47:47;103515.41;;;22.09;26.49
75767;BME280;64378;55.596;13.014;2023-04-03T08:50:20;103516.03;;;22.11;26.60
75767;BME280;64378;55.596;13.014;2023-04-03T08:52:51;103514.16;;;22.12;26.59
75767;BME280;64378;55.596;13.014;2023-04-03T08:55:27;103518.59;;;22.13;26.82
75767;BME280;64378;55.596;13.014;2023-04-03T08:58:20;103521.13;;;22.14;26.90
75767;BME280;64378;55.596;13.014;2023-04-03T09:01:00;103521.13;;;22.14;26.69
75767;BME280;64378;55.596;13.014;2023-04-03T09:03:29;103514.56;;;22.15;26.96
75767;BME280;64378;55.596;13.014;2023-04-03T09:06:14;103517.94;;;22.17;27.21
75767;BME280;64378;55.596;13.014;2023-04-03T09:11:44;103514.13;;;22.18;27.16
75767;BME280;64378;55.596;13.014;2023-04-03T09:16:59;103515.84;;;22.19;27.17
75767;BME280;64378;55.596;13.014;2023-04-03T09:22:21;103505.66;;;22.20;27.13
75767;BME280;64378;55.596;13.014;2023-04-03T09:25:03;103512.03;;;22.20;27.48
75767;BME280;64378;55.596;13.014;2023-04-03T09:27:30;103516.66;;;22.20;27.79
75767;BME280;64378;55.596;13.014;2023-04-03T09:29:56;103510.09;;;22.21;27.81
75767;BME280;64378;55.596;13.014;2023-04-03T09:32:31;103513.91;;;22.20;27.76
75767;BME280;64378;55.596;13.014;2023-04-03T09:35:10;103510.09;;;22.21;27.74
75767;BME280;64378;55.596;13.014;2023-04-03T09:37:46;103513.72;;;22.21;27.69
75767;BME280;64378;55.596;13.014;2023-04-03T09:42:58;103506.53;;;22.20;27.55
75767;BME280;64378;55.596;13.014;2023-04-03T09:45:27;103509.28;;;22.20;27.58
75767;BME280;64378;55.596;13.014;2023-04-03T09:51:00;103508.41;;;22.20;27.36
75767;BME280;64378;55.596;13.014;2023-04-03T09:55:58;103494.66;;;22.20;27.37
75767;BME280;64378;55.596;13.014;2023-04-03T09:58:37;103493.81;;;22.19;26.97
75767;BME280;64378;55.596;13.014;2023-04-03T10:01:05;103492.13;;;22.18;26.91
75767;BME280;64378;55.596;13.014;2023-04-03T10:03:35;103486.88;;;22.17;27.03
75767;BME280;64378;55.596;13.014;2023-04-03T10:06:03;103476.91;;;22.16;26.96
75767;BME280;64378;55.596;13.014;2023-04-03T10:08:32;103480.50;;;22.16;27.03
75767;BME280;64378;55.596;13.014;2023-04-03T10:11:14;103481.78;;;22.14;27.01
75767;BME280;64378;55.596;13.014;2023-04-03T10:13:54;103473.53;;;22.14;26.86
75767;BME280;64378;55.596;13.014;2023-04-03T10:19:31;103472.66;;;22.13;26.75
75767;BME280;64378;55.596;13.014;2023-04-03T10:31:08;103463.16;;;22.09;26.57
75767;BME280;64378;55.596;13.014;2023-04-03T10:33:51;103458.72;;;22.08;26.35
75767;BME280;64378;55.596;13.014;2023-04-03T10:36:35;103457.00;;;22.07;26.23
75767;BME280;64378;55.596;13.014;2023-04-03T10:42:22;103449.00;;;22.06;26.48
75767;BME280;64378;55.596;13.014;2023-04-03T10:45:07;103447.31;;;22.05;26.51
75767;BME280;64378;55.596;13.014;2023-04-03T10:47:56;103447.31;;;22.05;26.48
75767;BME280;64378;55.596;13.014;2023-04-03T10:50:48;103449.19;;;22.04;26.93
75767;BME280;64378;55.596;13.014;2023-04-03T10:53:25;103438.19;;;22.04;27.20
75767;BME280;64378;55.596;13.014;2023-04-03T10:56:16;103433.78;;;22.03;27.10
75767;BME280;64378;55.596;13.014;2023-04-03T10:58:45;103435.66;;;22.03;26.63
75767;BME280;64378;55.596;13.014;2023-04-03T11:01:16;103438.41;;;22.03;26.46
75767;BME280;64378;55.596;13.014;2023-04-03T11:03:53;103433.78;;;22.03;26.65
75767;BME280;64378;55.596;13.014;2023-04-03T11:06:21;103433.16;;;22.01;26.63
75767;BME280;64378;55.596;13.014;2023-04-03T11:09:02;103431.22;;;22.02;26.62
75767;BME280;64378;55.596;13.014;2023-04-03T11:11:38;103432.91;;;22.03;26.40
75767;BME280;64378;55.596;13.014;2023-04-03T11:16:47;103427.66;;;22.01;26.54
75767;BME280;64378;55.596;13.014;2023-04-03T11:19:48;103432.28;;;22.01;26.56
75767;BME280;64378;55.596;13.014;2023-04-03T11:24:56;103424.03;;;22.01;26.43
75767;BME280;64378;55.596;13.014;2023-04-03T11:27:25;103425.09;;;22.00;26.20
75767;BME280;64378;55.596;13.014;2023-04-03T11:29:53;103421.50;;;21.99;26.03
75767;BME280;64378;55.596;13.014;2023-04-03T11:35:16;103413.25;;;21.99;26.39
75767;BME280;64378;55.596;13.014;2023-04-03T11:37:47;103424.25;;;21.99;26.11
75767;BME280;64378;55.596;13.014;2023-04-03T11:43:02;103416.22;;;21.98;25.86
75767;BME280;64378;55.596;13.014;2023-04-03T11:46:02;103413.69;;;21.96;26.00
75767;BME280;64378;55.596;13.014;2023-04-03T11:51:47;103413.69;;;21.96;25.87
75767;BME280;64378;55.596;13.014;2023-04-03T11:53:48;103404.81;;;21.94;25.75
75767;BME280;64378;55.596;13.014;2023-04-03T12:01:54;103401.41;;;21.92;25.78
75767;BME280;64378;55.596;13.014;2023-04-03T12:04:22;103401.41;;;21.92;25.74
75767;BME280;64378;55.596;13.014;2023-04-03T12:06:49;103402.47;;;21.91;25.95
75767;BME280;64378;55.596;13.014;2023-04-03T12:12:37;103399.09;;;21.89;26.30
75767;BME280;64378;55.596;13.014;2023-04-03T12:17:45;103400.16;;;21.88;25.75
75767;BME280;64378;55.596;13.014;2023-04-03T12:20:52;103394.66;;;21.88;26.02
75767;BME280;64378;55.596;13.014;2023-04-03T12:23:32;103394.03;;;21.87;25.80
75767;BME280;64378;55.596;13.014;2023-04-03T12:26:10;103394.88;;;21.87;26.09
75767;BME280;64378;55.596;13.014;2023-04-03T12:28:45;103383.88;;;21.87;26.85
75767;BME280;64378;55.596;13.014;2023-04-03T12:31:12;103380.28;;;21.87;26.27
75767;BME280;64378;55.596;13.014;2023-04-03T12:42:55;103376.47;;;21.88;26.38
75767;BME280;64378;55.596;13.014;2023-04-03T12:45:49;103377.34;;;21.88;26.21
75767;BME280;64378;55.596;13.014;2023-04-03T12:48:20;103367.16;;;21.88;26.48
75767;BME280;64378;55.596;13.014;2023-04-03T12:50:48;103368.84;;;21.89;26.33
75767;BME280;64378;55.596;13.014;2023-04-03T12:53:41;103368.03;;;21.89;26.32
75767;BME280;64378;55.596;13.014;2023-04-03T12:56:21;103359.56;;;21.90;26.30
75767;BME280;64378;55.596;13.014;2023-04-03T12:58:48;103355.97;;;21.90;26.61
75767;BME280;64378;55.596;13.014;2023-04-03T13:01:17;103361.47;;;21.90;26.11
75767;BME280;64378;55.596;13.014;2023-04-03T13:04:04;103354.06;;;21.90;26.37
75767;BME280;64378;55.596;13.014;2023-04-03T13:06:43;103352.16;;;21.91;26.31
75767;BME280;64378;55.596;13.014;2023-04-03T13:11:44;103348.56;;;21.90;26.61
75767;BME280;64378;55.596;13.014;2023-04-03T13:14:20;103344.75;;;21.91;26.56
75767;BME280;64378;55.596;13.014;2023-04-03T13:16:57;103347.50;;;21.91;26.39
75767;BME280;64378;55.596;13.014;2023-04-03T13:19:24;103352.78;;;21.93;26.62
75767;BME280;64378;55.596;13.014;2023-04-03T13:21:57;103353.63;;;21.93;26.70
75767;BME280;64378;55.596;13.014;2023-04-03T13:24:24;103350.03;;;21.93;26.71
75767;BME280;64378;55.596;13.014;2023-04-03T13:26:51;103342.63;;;21.93;26.78
75767;BME280;64378;55.596;13.014;2023-04-03T13:29:25;103336.91;;;21.95;26.73
75767;BME280;64378;55.596;13.014;2023-04-03T13:31:53;103341.34;;;21.96;26.72
75767;BME280;64378;55.596;13.014;2023-04-03T13:34:21;103338.41;;;21.97;26.87
75767;BME280;64378;55.596;13.014;2023-04-03T13:41:49;103327.81;;;22.01;27.06
75767;BME280;64378;55.596;13.014;2023-04-03T13:44:26;103329.50;;;22.02;27.03
75767;BME280;64378;55.596;13.014;2023-04-03T13:49:39;103328.44;;;22.03;27.05
75767;BME280;64378;55.596;13.014;2023-04-03T13:52:24;103321.88;;;22.04;26.86
75767;BME280;64378;55.596;13.014;2023-04-03T13:55:15;103318.31;;;22.03;26.97
75767;BME280;64378;55.596;13.014;2023-04-03T13:57:49;103319.13;;;22.04;26.83
75767;BME280;64378;55.596;13.014;2023-04-03T14:00:30;103303.47;;;22.04;26.89
75767;BME280;64378;55.596;13.014;2023-04-03T14:02:57;103312.81;;;22.03;26.98
75767;BME280;64378;55.596;13.014;2023-04-03T14:05:23;103303.47;;;22.04;27.00
75767;BME280;64378;55.596;13.014;2023-04-03T14:07:50;103307.06;;;22.05;26.84
75767;BME280;64378;55.596;13.014;2023-04-03T14:10:16;103307.06;;;22.05;26.66
75767;BME280;64378;55.596;13.014;2023-04-03T14:12:41;103308.13;;;22.04;27.00
75767;BME280;64378;55.596;13.014;2023-04-03T14:15:23;103300.72;;;22.04;27.16
75767;BME280;64378;55.596;13.014;2023-04-03T14:17:50;103299.88;;;22.04;26.76
75767;BME280;64378;55.596;13.014;2023-04-03T14:20:22;103294.38;;;22.04;26.84
75767;BME280;64378;55.596;13.014;2023-04-03T14:22:48;103287.63;;;22.00;26.79